Heath, MA (01346)

2:38 AM EST on February 06, 2016 (GMT -0500)
HappyHillFarm | | Change Station
CLOSE
Current Station
Personal Weather Station
Location: Charlemont, MA
Elevation: 1732 ft
Nearby Weather Stations

Elev 1732 ft 42.70 °N, 72.85 °W | Updated 1 second ago

Partly Cloudy
Partly Cloudy
19.8 °F
Feels Like 11 °F
N
6.5
Wind Variable Wind from NW
Gusts 7.4 mph

Today
High -- | Low -- °F
--% Chance of Precip.
Yesterday
High -- | Low -- °F
Precip. -- in
Pressure 30.32 in
Visibility 10.0 miles
Clouds Clear
Windchill 11 °F
Dew Point 7 °F
Humidity 56%
Rainfall 0.00 in
Snow Depth Not available.
7:00 AM 5:10 PM
Waning Crescent, 7% visible
METAR KAQW 060652Z AUTO 00000KT 10SM CLR M09/M11 A3029 RMK AO2 SLP267 I1000 T10941111
Pressure 30.32 in
Visibility 10.0 miles
Clouds Clear
Windchill 11 °F
Dew Point 7 °F
Humidity 56%
Rainfall 0.00 in
Snow Depth Not available.
7:00 AM 5:10 PM
Waning Crescent, 7% visible
METAR KAQW 060652Z AUTO 00000KT 10SM CLR M09/M11 A3029 RMK AO2 SLP267 I1000 T10941111

10-Day Weather Forecast

Almanac

Astronomy

Feb. 06, 2016 Rise Set
Actual Time
Civil Twilight
Nautical Twilight
Astronomical Twilight
Moon
Length of Visible Light
Length of Day
Tomorrow will be .
, % of the Moon is Illuminated

Today's Extremes

State Highs State Lows

Community

WunderPhotos

Upload Photos

1,890,933 photos uploaded!

WunderBlog® & News

Nearby

Air Quality

  Air Quality AQ Index Pollutant
Not available.

Snow Depth

Station Depth Elevation

Earthquake Activity

City Distance Mag. Time & Date
Minimum magnitude displayed is 2.5.

Coastal Water Temperatures

Place Temperature

Stations

Nearby Weather Stations

Station Location Temp. Windchill Dew Point Humidity Wind Precip. Elev Updated Type
                   

Watches & Warnings

Special Statement
Issued: 12:04 AM EST Feb. 6, 2016 – National Weather Service

... Patches of black ice possible overnight into tomorrow...

Temperatures are expected to drop rapidly overnight... into the
teens and low 20s. This will lead to rapid freezing of untreated
roadways and walkways... which could become slippery with black
ice.

Those traveling are urged to use caution and allow for extra time
as the ice may be difficult to see.



1204 am EST Sat Feb 6 2016

... Patches of black ice possible overnight into tomorrow...

Temperatures are expected to drop rapidly overnight... into the
teens and low 20s. This will lead to rapid freezing of untreated
roadways and walkways... which could become slippery with black
ice.

Those traveling are urged to use caution and allow for extra time
as the ice may be difficult to see.